createdAt,value
2023-03-30T00:00:16.408Z,20.80
2023-03-30T00:01:16.414Z,20.77
2023-03-30T00:02:16.408Z,20.81
2023-03-30T00:03:16.524Z,20.77
2023-03-30T00:04:16.565Z,20.77
2023-03-30T00:05:16.521Z,20.71
2023-03-30T00:06:16.417Z,20.83
2023-03-30T00:07:16.416Z,20.77
2023-03-30T00:08:16.422Z,20.72
2023-03-30T00:09:16.421Z,20.72
2023-03-30T00:10:16.426Z,20.77
2023-03-30T00:11:16.419Z,20.71
2023-03-30T00:12:16.427Z,20.79
2023-03-30T00:13:16.452Z,20.77
2023-03-30T00:14:16.434Z,20.76
2023-03-30T00:15:16.430Z,20.74
2023-03-30T00:16:16.446Z,20.72
2023-03-30T00:17:16.434Z,20.72
2023-03-30T00:18:16.534Z,20.77
2023-03-30T00:19:16.817Z,20.77
2023-03-30T00:20:16.490Z,20.83
2023-03-30T00:21:16.440Z,20.80
2023-03-30T00:22:16.443Z,20.83
2023-03-30T00:23:16.644Z,20.72
2023-03-30T00:24:16.453Z,20.76
2023-03-30T00:25:16.450Z,20.80
2023-03-30T00:26:16.449Z,20.72
2023-03-30T00:27:16.455Z,20.77
2023-03-30T00:28:16.447Z,20.68
2023-03-30T00:29:16.482Z,20.77
2023-03-30T00:30:16.448Z,20.72
2023-03-30T00:31:16.584Z,20.72
2023-03-30T00:32:16.455Z,20.69
2023-03-30T00:33:16.621Z,20.72
2023-03-30T00:34:16.461Z,20.72
2023-03-30T00:35:16.469Z,20.66
2023-03-30T00:36:16.686Z,20.74
2023-03-30T00:37:16.466Z,20.81
2023-03-30T00:38:16.468Z,20.77
2023-03-30T00:39:16.467Z,20.77
2023-03-30T00:40:16.467Z,20.69
2023-03-30T00:41:16.472Z,20.72
2023-03-30T00:42:16.466Z,20.71
2023-03-30T00:43:16.471Z,20.74
2023-03-30T00:44:16.478Z,20.77
2023-03-30T00:45:16.510Z,20.74
2023-03-30T00:46:16.576Z,20.65
2023-03-30T00:47:16.474Z,20.74
2023-03-30T00:48:16.483Z,20.72
2023-03-30T00:49:16.478Z,20.76
2023-03-30T00:50:16.479Z,20.72
2023-03-30T00:51:16.482Z,20.72
2023-03-30T00:52:16.480Z,20.74
2023-03-30T00:53:16.485Z,20.69
2023-03-30T00:54:16.490Z,20.77
2023-03-30T00:55:16.485Z,20.69
2023-03-30T00:56:16.546Z,20.72
2023-03-30T00:57:16.546Z,20.71
2023-03-30T00:58:16.494Z,20.74
2023-03-30T00:59:16.488Z,20.71
2023-03-30T01:00:16.492Z,20.64
2023-03-30T01:01:16.564Z,20.72
2023-03-30T01:02:16.523Z,20.74
2023-03-30T01:03:16.733Z,20.72
2023-03-30T01:04:16.503Z,20.77
2023-03-30T01:05:16.510Z,20.72
2023-03-30T01:06:16.511Z,20.72
2023-03-30T01:07:16.507Z,20.66
2023-03-30T01:08:16.849Z,20.77
2023-03-30T01:09:16.508Z,20.72
2023-03-30T01:10:16.507Z,20.71
2023-03-30T01:11:16.514Z,20.74
2023-03-30T01:12:16.513Z,20.76
2023-03-30T01:13:16.514Z,20.72
2023-03-30T01:14:16.524Z,20.72
2023-03-30T01:15:16.536Z,20.69
2023-03-30T01:16:16.618Z,20.56
2023-03-30T01:17:16.558Z,20.71
2023-03-30T01:18:16.522Z,20.74
2023-03-30T01:19:16.535Z,20.76
2023-03-30T01:20:16.531Z,20.69
2023-03-30T01:21:16.525Z,20.69
2023-03-30T01:22:16.534Z,20.62
2023-03-30T01:23:16.532Z,20.72
2023-03-30T01:24:16.537Z,20.76
2023-03-30T01:25:16.530Z,20.74
2023-03-30T01:26:16.534Z,20.62
2023-03-30T01:27:16.542Z,20.62
2023-03-30T01:28:16.535Z,20.66
2023-03-30T01:29:16.551Z,20.64
2023-03-30T01:30:16.540Z,20.65
2023-03-30T01:31:16.582Z,20.61
2023-03-30T01:32:16.542Z,20.74
2023-03-30T01:33:16.571Z,20.74
2023-03-30T01:34:16.549Z,20.62
2023-03-30T01:35:16.611Z,20.66
2023-03-30T01:36:16.582Z,20.74
2023-03-30T01:37:16.547Z,20.77
2023-03-30T01:38:16.552Z,20.72
2023-03-30T01:39:16.571Z,20.58
2023-03-30T01:40:16.567Z,20.66
2023-03-30T01:41:16.564Z,20.65
2023-03-30T01:42:16.556Z,20.68
2023-03-30T01:43:16.563Z,20.61
2023-03-30T01:44:16.567Z,20.65
2023-03-30T01:45:16.570Z,20.64
2023-03-30T01:46:16.641Z,20.62
2023-03-30T01:47:16.564Z,20.71
2023-03-30T01:48:16.560Z,20.59
2023-03-30T01:49:16.594Z,20.61
2023-03-30T01:50:16.590Z,20.64
2023-03-30T01:51:16.571Z,20.59
2023-03-30T01:52:16.585Z,20.68
2023-03-30T01:53:16.587Z,20.62
2023-03-30T01:54:16.589Z,20.61
2023-03-30T01:55:16.578Z,20.62
2023-03-30T01:56:16.587Z,20.62
2023-03-30T01:57:16.620Z,20.64
2023-03-30T01:58:16.582Z,20.62
2023-03-30T01:59:16.585Z,20.64
2023-03-30T02:00:16.580Z,20.66
2023-03-30T02:01:16.580Z,20.61
2023-03-30T02:02:16.641Z,20.62
2023-03-30T02:03:16.668Z,20.68
2023-03-30T02:04:16.590Z,20.59
2023-03-30T02:05:16.615Z,20.62
2023-03-30T02:06:16.592Z,20.61
2023-03-30T02:07:16.642Z,20.61
2023-03-30T02:08:16.592Z,20.61
2023-03-30T02:09:16.601Z,20.62
2023-03-30T02:10:16.598Z,20.62
2023-03-30T02:11:16.594Z,20.61
2023-03-30T02:12:16.603Z,20.64
2023-03-30T02:13:16.897Z,20.59
2023-03-30T02:14:16.599Z,20.62
2023-03-30T02:15:16.615Z,20.64
2023-03-30T02:16:16.627Z,20.68
2023-03-30T02:17:16.608Z,20.69
2023-03-30T02:18:16.636Z,20.69
2023-03-30T02:19:16.610Z,20.76
2023-03-30T02:20:16.607Z,20.66
2023-03-30T02:21:16.635Z,20.66
2023-03-30T02:22:16.613Z,20.61
2023-03-30T02:23:16.613Z,20.69
2023-03-30T02:24:16.622Z,20.69
2023-03-30T02:25:16.615Z,20.58
2023-03-30T02:26:16.625Z,20.62
2023-03-30T02:27:16.615Z,20.61
2023-03-30T02:28:16.625Z,20.62
2023-03-30T02:29:16.642Z,20.59
2023-03-30T02:30:16.632Z,20.69
2023-03-30T02:31:16.672Z,20.68
2023-03-30T02:32:16.637Z,20.66
2023-03-30T02:33:16.677Z,20.61
2023-03-30T02:34:16.624Z,20.62
2023-03-30T02:35:16.632Z,20.61
2023-03-30T02:36:16.660Z,20.61
2023-03-30T02:37:16.679Z,20.61
2023-03-30T02:38:16.742Z,20.59
2023-03-30T02:39:16.640Z,20.62
2023-03-30T02:40:16.637Z,20.56
2023-03-30T02:41:16.637Z,20.61
2023-03-30T02:42:16.698Z,20.64
2023-03-30T02:43:16.645Z,20.59
2023-03-30T02:44:16.644Z,20.64
2023-03-30T02:45:16.660Z,20.65
2023-03-30T02:46:16.718Z,20.64
2023-03-30T02:47:16.652Z,20.61
2023-03-30T02:48:16.914Z,20.58
2023-03-30T02:49:16.680Z,20.56
2023-03-30T02:50:16.657Z,20.64
2023-03-30T02:51:16.655Z,20.64
2023-03-30T02:52:16.652Z,20.65
2023-03-30T02:53:16.683Z,20.64
2023-03-30T02:54:16.658Z,20.58
2023-03-30T02:55:16.663Z,20.61
2023-03-30T02:56:16.656Z,20.62
2023-03-30T02:57:16.721Z,20.59
2023-03-30T02:58:16.722Z,20.69
2023-03-30T02:59:16.662Z,20.58
2023-03-30T03:00:16.667Z,20.61
2023-03-30T03:01:16.677Z,20.64
2023-03-30T03:02:16.696Z,20.61
2023-03-30T03:03:16.793Z,20.64
2023-03-30T03:04:16.693Z,20.64
2023-03-30T03:05:16.715Z,20.59
2023-03-30T03:06:16.669Z,20.59
2023-03-30T03:07:16.682Z,20.61
2023-03-30T03:08:16.684Z,20.62
2023-03-30T03:09:16.709Z,20.59
2023-03-30T03:10:16.691Z,20.62
2023-03-30T03:11:16.686Z,20.59
2023-03-30T03:12:16.684Z,20.56
2023-03-30T03:13:16.732Z,20.50
2023-03-30T03:14:16.683Z,20.50
2023-03-30T03:15:16.697Z,20.56
2023-03-30T03:16:16.691Z,20.47
2023-03-30T03:17:16.773Z,20.58
2023-03-30T03:18:16.688Z,20.64
2023-03-30T03:19:16.704Z,20.58
2023-03-30T03:20:16.708Z,20.59
2023-03-30T03:21:16.701Z,20.59
2023-03-30T03:22:16.703Z,20.61
2023-03-30T03:23:16.703Z,20.64
2023-03-30T03:24:16.702Z,20.65
2023-03-30T03:25:16.726Z,20.61
2023-03-30T03:26:16.706Z,20.65
2023-03-30T03:27:16.700Z,20.64
2023-03-30T03:28:16.767Z,20.62
2023-03-30T03:29:16.705Z,20.62
2023-03-30T03:30:16.716Z,20.51
2023-03-30T03:31:16.735Z,20.58
2023-03-30T03:32:16.717Z,20.61
2023-03-30T03:33:16.719Z,20.59
2023-03-30T03:34:16.715Z,20.54
2023-03-30T03:35:16.717Z,20.58
2023-03-30T03:36:16.819Z,20.58
2023-03-30T03:37:16.712Z,20.56
2023-03-30T03:38:16.969Z,20.59
2023-03-30T03:39:16.725Z,20.59
2023-03-30T03:40:16.716Z,20.64
2023-03-30T03:41:16.754Z,20.64
2023-03-30T03:42:16.730Z,20.59
2023-03-30T03:43:16.737Z,20.61
2023-03-30T03:44:16.726Z,20.47
2023-03-30T03:45:16.731Z,20.62
2023-03-30T03:46:16.775Z,20.62
2023-03-30T03:47:16.802Z,20.56
2023-03-30T03:48:16.847Z,20.59
2023-03-30T03:49:16.734Z,20.54
2023-03-30T03:50:16.735Z,20.47
2023-03-30T03:51:16.752Z,20.49
2023-03-30T03:52:16.734Z,20.58
2023-03-30T03:53:16.974Z,20.61
2023-03-30T03:54:16.742Z,20.58
2023-03-30T03:55:16.752Z,20.47
2023-03-30T03:56:16.748Z,20.59
2023-03-30T03:57:16.854Z,20.51
2023-03-30T03:58:16.747Z,20.59
2023-03-30T03:59:16.751Z,20.65
2023-03-30T04:00:16.760Z,20.50
2023-03-30T04:01:16.756Z,20.59
2023-03-30T04:02:16.770Z,20.58
2023-03-30T04:03:16.860Z,20.58
2023-03-30T04:04:16.774Z,20.53
2023-03-30T04:05:16.753Z,20.54
2023-03-30T04:06:16.751Z,20.62
2023-03-30T04:07:16.760Z,20.62
2023-03-30T04:08:16.758Z,20.66
2023-03-30T04:09:16.762Z,20.62
2023-03-30T04:10:16.762Z,20.62
2023-03-30T04:11:16.766Z,20.56
2023-03-30T04:12:16.774Z,20.61
2023-03-30T04:13:16.993Z,20.56
2023-03-30T04:14:16.768Z,20.61
2023-03-30T04:15:16.773Z,20.61
2023-03-30T04:16:16.801Z,20.61
2023-03-30T04:17:16.792Z,20.65
2023-03-30T04:18:16.777Z,20.64
2023-03-30T04:19:16.776Z,20.61
2023-03-30T04:20:16.773Z,20.62
2023-03-30T04:21:16.776Z,20.65
2023-03-30T04:22:16.791Z,20.59
2023-03-30T04:23:16.817Z,20.64
2023-03-30T04:24:16.780Z,20.51
2023-03-30T04:25:16.779Z,20.62
2023-03-30T04:26:16.779Z,20.59
2023-03-30T04:27:16.784Z,20.62
2023-03-30T04:28:16.990Z,20.62
2023-03-30T04:29:16.812Z,20.59
2023-03-30T04:30:16.788Z,20.59
2023-03-30T04:31:16.816Z,20.53
2023-03-30T04:32:16.792Z,20.64
2023-03-30T04:33:17.093Z,20.61
2023-03-30T04:34:16.794Z,20.59
2023-03-30T04:35:16.806Z,20.59
2023-03-30T04:36:16.821Z,20.56
2023-03-30T04:37:16.813Z,20.64
2023-03-30T04:38:16.807Z,20.59
2023-03-30T04:39:16.803Z,20.56
2023-03-30T04:40:16.809Z,20.62
2023-03-30T04:41:16.813Z,20.61
2023-03-30T04:42:16.813Z,20.64
2023-03-30T04:43:16.856Z,20.64
2023-03-30T04:44:16.816Z,20.65
2023-03-30T04:45:16.829Z,20.62
2023-03-30T04:46:16.914Z,20.61
2023-03-30T04:47:16.824Z,20.54
2023-03-30T04:48:16.817Z,20.59
2023-03-30T04:49:16.815Z,20.56
2023-03-30T04:50:16.816Z,20.58
2023-03-30T04:51:16.824Z,20.59
2023-03-30T04:52:16.823Z,20.61
2023-03-30T04:53:16.827Z,20.65
2023-03-30T04:54:16.821Z,20.62
2023-03-30T04:55:16.825Z,20.64
2023-03-30T04:56:16.826Z,20.65
2023-03-30T04:57:16.866Z,20.64
2023-03-30T04:58:16.831Z,20.58
2023-03-30T04:59:16.832Z,20.61
2023-03-30T05:00:16.866Z,20.64
2023-03-30T05:01:16.894Z,20.59
2023-03-30T05:02:16.881Z,20.53
2023-03-30T05:03:17.160Z,20.58
2023-03-30T05:04:16.840Z,20.61
2023-03-30T05:05:16.839Z,20.64
2023-03-30T05:06:16.838Z,20.64
2023-03-30T05:07:16.853Z,20.62
2023-03-30T05:08:16.853Z,20.65
2023-03-30T05:09:16.851Z,20.62
2023-03-30T05:10:16.841Z,20.66
2023-03-30T05:11:16.850Z,20.66
2023-03-30T05:12:16.863Z,20.64
2023-03-30T05:13:16.848Z,20.72
2023-03-30T05:14:16.847Z,20.68
2023-03-30T05:15:16.851Z,20.71
2023-03-30T05:16:16.887Z,20.68
2023-03-30T05:17:16.948Z,20.76
2023-03-30T05:18:16.859Z,20.80
2023-03-30T05:19:16.852Z,20.86
2023-03-30T05:20:16.861Z,20.79
2023-03-30T05:21:16.867Z,20.77
2023-03-30T05:22:16.862Z,20.81
2023-03-30T05:23:16.859Z,20.81
2023-03-30T05:24:16.870Z,20.81
2023-03-30T05:25:16.869Z,20.80
2023-03-30T05:26:16.934Z,20.80
2023-03-30T05:27:16.871Z,20.76
2023-03-30T05:28:16.875Z,20.80
2023-03-30T05:29:16.869Z,20.89
2023-03-30T05:30:16.868Z,20.91
2023-03-30T05:31:16.927Z,20.87
2023-03-30T05:32:16.878Z,20.90
2023-03-30T05:33:16.905Z,20.91
2023-03-30T05:34:16.880Z,20.95
2023-03-30T05:35:16.894Z,20.89
2023-03-30T05:36:16.941Z,20.81
2023-03-30T05:37:16.883Z,20.90
2023-03-30T05:38:16.881Z,20.95
2023-03-30T05:39:16.891Z,20.91
2023-03-30T05:40:16.888Z,20.99
2023-03-30T05:41:16.889Z,20.89
2023-03-30T05:42:16.916Z,20.93
2023-03-30T05:43:16.894Z,20.93
2023-03-30T05:44:16.903Z,21.04
2023-03-30T05:45:16.890Z,20.99
2023-03-30T05:46:16.940Z,21.01
2023-03-30T05:47:16.894Z,21.06
2023-03-30T05:48:16.944Z,21.01
2023-03-30T05:49:16.917Z,21.04
2023-03-30T05:50:16.906Z,21.04
2023-03-30T05:51:16.901Z,20.93
2023-03-30T05:52:16.899Z,21.01
2023-03-30T05:53:16.903Z,20.96
2023-03-30T05:54:16.903Z,21.04
2023-03-30T05:55:16.929Z,21.02
2023-03-30T05:56:16.914Z,20.95
2023-03-30T05:57:16.960Z,20.91
2023-03-30T05:58:16.918Z,20.96
2023-03-30T05:59:16.923Z,21.06
2023-03-30T06:00:16.916Z,20.99
2023-03-30T06:01:16.918Z,21.02
2023-03-30T06:02:16.913Z,21.06
2023-03-30T06:03:17.099Z,20.99
2023-03-30T06:04:17.004Z,20.99
2023-03-30T06:05:16.942Z,21.02
2023-03-30T06:06:16.927Z,20.96
2023-03-30T06:07:16.919Z,21.02
2023-03-30T06:08:16.926Z,20.99
2023-03-30T06:09:16.994Z,21.04
2023-03-30T06:10:16.947Z,21.02
2023-03-30T06:11:16.929Z,20.96
2023-03-30T06:12:16.942Z,20.87
2023-03-30T06:13:16.931Z,20.91
2023-03-30T06:14:16.937Z,20.96
2023-03-30T06:15:16.942Z,20.90
2023-03-30T06:16:17.104Z,21.01
2023-03-30T06:17:16.948Z,20.99
2023-03-30T06:18:17.026Z,20.96
2023-03-30T06:19:16.950Z,21.02
2023-03-30T06:20:16.943Z,20.98
2023-03-30T06:21:16.986Z,20.99
2023-03-30T06:22:16.969Z,21.05
2023-03-30T06:23:17.097Z,20.98
2023-03-30T06:24:16.969Z,21.01
2023-03-30T06:25:16.953Z,21.02
2023-03-30T06:26:16.950Z,21.06
2023-03-30T06:27:16.971Z,21.06
2023-03-30T06:28:16.963Z,21.02
2023-03-30T06:29:16.961Z,20.95
2023-03-30T06:30:16.988Z,21.02
2023-03-30T06:31:17.018Z,21.01
2023-03-30T06:32:17.092Z,20.99
2023-03-30T06:33:16.965Z,21.04
2023-03-30T06:34:16.964Z,20.96
2023-03-30T06:35:16.968Z,20.99
2023-03-30T06:36:17.094Z,20.99
2023-03-30T06:37:17.005Z,20.99
2023-03-30T06:38:16.978Z,20.99
2023-03-30T06:39:16.977Z,21.06
2023-03-30T06:40:16.977Z,21.04
2023-03-30T06:41:16.983Z,20.99
2023-03-30T06:42:16.992Z,21.02
2023-03-30T06:43:16.987Z,20.99
2023-03-30T06:44:16.990Z,21.04
2023-03-30T06:45:17.016Z,21.04
2023-03-30T06:46:17.056Z,20.98
2023-03-30T06:47:16.991Z,21.01
2023-03-30T06:48:16.991Z,21.02
2023-03-30T06:49:17.179Z,21.05
2023-03-30T06:50:16.990Z,21.04
2023-03-30T06:51:16.999Z,21.11
2023-03-30T06:52:17.003Z,21.11
2023-03-30T06:53:17.187Z,21.05
2023-03-30T06:54:16.997Z,21.05
2023-03-30T06:55:17.023Z,21.04
2023-03-30T06:56:17.000Z,21.19
2023-03-30T06:57:17.040Z,21.13
2023-03-30T06:58:17.005Z,21.06
2023-03-30T06:59:17.309Z,21.09
2023-03-30T07:00:17.013Z,21.11
2023-03-30T07:01:17.108Z,21.21
2023-03-30T07:02:17.016Z,21.14
2023-03-30T07:03:17.016Z,21.23
2023-03-30T07:04:17.060Z,21.19
2023-03-30T07:05:17.018Z,21.17
2023-03-30T07:06:18.715Z,21.21
2023-03-30T07:07:17.017Z,21.23
2023-03-30T07:08:17.039Z,21.26
2023-03-30T07:09:17.052Z,21.26
2023-03-30T07:10:17.270Z,21.13
2023-03-30T07:11:17.029Z,21.20
2023-03-30T07:12:17.033Z,21.30
2023-03-30T07:13:17.112Z,21.19
2023-03-30T07:14:17.030Z,21.20
2023-03-30T07:15:17.040Z,21.30
2023-03-30T07:16:17.068Z,21.26
2023-03-30T07:17:17.094Z,21.13
2023-03-30T07:18:17.088Z,21.23
2023-03-30T07:19:17.043Z,21.19
2023-03-30T07:20:17.046Z,21.16
2023-03-30T07:21:17.094Z,21.24
2023-03-30T07:22:17.046Z,21.24
2023-03-30T07:23:17.046Z,21.26
2023-03-30T07:24:17.055Z,21.24
2023-03-30T07:25:17.078Z,21.26
2023-03-30T07:26:17.108Z,21.24
2023-03-30T07:27:17.063Z,21.24
2023-03-30T07:28:17.060Z,21.21
2023-03-30T07:29:17.070Z,21.16
2023-03-30T07:30:21.684Z,21.23
2023-03-30T07:31:17.143Z,21.19
2023-03-30T07:32:17.097Z,21.23
2023-03-30T07:33:17.151Z,21.17
2023-03-30T07:34:17.074Z,21.30
2023-03-30T07:35:17.069Z,21.23
2023-03-30T07:36:17.107Z,21.19
2023-03-30T07:37:20.518Z,21.24
2023-03-30T07:38:17.073Z,21.23
2023-03-30T07:39:17.124Z,21.16
2023-03-30T07:40:17.168Z,21.13
2023-03-30T07:41:17.108Z,21.20
2023-03-30T07:42:17.085Z,21.16
2023-03-30T07:43:17.090Z,21.24
2023-03-30T07:44:17.092Z,21.21
2023-03-30T07:45:17.089Z,21.27
2023-03-30T07:46:17.174Z,21.20
2023-03-30T07:47:17.107Z,21.32
2023-03-30T07:48:17.145Z,21.30
2023-03-30T07:49:17.101Z,21.24
2023-03-30T07:50:17.107Z,21.17
2023-03-30T07:51:17.092Z,21.35
2023-03-30T07:52:17.103Z,21.26
2023-03-30T07:53:17.102Z,21.35
2023-03-30T07:54:17.105Z,21.32
2023-03-30T07:55:17.110Z,21.29
2023-03-30T07:56:17.105Z,21.23
2023-03-30T07:57:17.171Z,21.27
2023-03-30T07:58:17.130Z,21.21
2023-03-30T07:59:17.121Z,21.20
2023-03-30T08:00:17.125Z,21.35
2023-03-30T08:01:17.113Z,21.27
2023-03-30T08:02:17.123Z,21.26
2023-03-30T08:03:17.325Z,21.24
2023-03-30T08:04:17.284Z,21.19
2023-03-30T08:05:17.325Z,21.23
2023-03-30T08:06:17.119Z,21.27
2023-03-30T08:07:17.130Z,21.26
2023-03-30T08:08:17.125Z,21.29
2023-03-30T08:09:17.140Z,21.26
2023-03-30T08:10:17.175Z,21.34
2023-03-30T08:11:17.185Z,21.27
2023-03-30T08:12:17.153Z,21.24
2023-03-30T08:13:18.720Z,21.26
2023-03-30T08:14:17.147Z,21.27
2023-03-30T08:15:17.140Z,21.35
2023-03-30T08:16:17.205Z,21.23
2023-03-30T08:17:17.139Z,21.39
2023-03-30T08:18:17.145Z,21.39
2023-03-30T08:19:17.157Z,21.24
2023-03-30T08:20:17.146Z,21.36
2023-03-30T08:21:17.148Z,21.35
2023-03-30T08:22:17.161Z,21.41
2023-03-30T08:23:17.159Z,21.36
2023-03-30T08:24:17.155Z,21.48
2023-03-30T08:25:17.155Z,21.48
2023-03-30T08:26:17.161Z,21.42
2023-03-30T08:27:17.215Z,21.51
2023-03-30T08:28:17.162Z,21.51
2023-03-30T08:29:17.261Z,21.57
2023-03-30T08:30:17.174Z,21.57
2023-03-30T08:31:17.214Z,21.61
2023-03-30T08:32:17.168Z,21.69
2023-03-30T08:33:17.193Z,21.66
2023-03-30T08:34:17.182Z,21.75
2023-03-30T08:35:17.171Z,21.76
2023-03-30T08:36:17.193Z,21.83
2023-03-30T08:37:17.181Z,22.07
2023-03-30T08:38:17.193Z,22.12
2023-03-30T08:39:17.176Z,22.17
2023-03-30T08:40:19.146Z,22.34
2023-03-30T08:41:17.191Z,22.41
2023-03-30T08:42:17.193Z,22.64
2023-03-30T08:43:17.198Z,22.83
2023-03-30T08:44:17.192Z,23.17
2023-03-30T08:45:17.222Z,23.38
2023-03-30T08:46:17.315Z,23.57
2023-03-30T08:47:17.209Z,23.83
2023-03-30T08:48:17.214Z,24.04
2023-03-30T08:49:17.211Z,24.35
2023-03-30T08:50:17.205Z,24.35
2023-03-30T08:51:17.215Z,24.61
2023-03-30T08:52:17.218Z,25.01
2023-03-30T08:53:17.231Z,25.22
2023-03-30T08:54:17.234Z,25.07
2023-03-30T08:55:17.223Z,24.67
2023-03-30T08:56:17.230Z,24.52
2023-03-30T08:57:18.925Z,24.50
2023-03-30T08:58:17.237Z,24.50
2023-03-30T08:59:17.251Z,24.42
2023-03-30T09:00:17.270Z,24.29
2023-03-30T09:01:17.342Z,24.38
2023-03-30T09:02:17.277Z,24.35
2023-03-30T09:03:17.314Z,24.41
2023-03-30T09:04:17.272Z,24.26
2023-03-30T09:05:17.314Z,24.31
2023-03-30T09:06:17.282Z,24.26
2023-03-30T09:07:17.536Z,24.16
2023-03-30T09:08:17.289Z,24.13
2023-03-30T09:09:17.297Z,24.00
2023-03-30T09:10:17.310Z,23.90
2023-03-30T09:11:17.311Z,24.01
2023-03-30T09:12:17.566Z,24.12
2023-03-30T09:13:17.355Z,24.12
2023-03-30T09:14:17.323Z,24.27
2023-03-30T09:15:17.326Z,24.20
2023-03-30T09:16:17.418Z,24.20
2023-03-30T09:17:17.410Z,24.10
2023-03-30T09:18:17.344Z,24.27
2023-03-30T09:19:17.343Z,24.20
2023-03-30T09:20:17.344Z,24.23
2023-03-30T09:21:17.350Z,24.29
2023-03-30T09:22:17.356Z,24.50
2023-03-30T09:23:17.364Z,24.60
2023-03-30T09:24:17.368Z,24.71
2023-03-30T09:25:17.370Z,24.92
2023-03-30T09:26:17.381Z,25.07
2023-03-30T09:27:17.424Z,25.25
2023-03-30T09:28:17.382Z,25.35
2023-03-30T09:29:17.389Z,25.15
2023-03-30T09:30:17.388Z,25.05
2023-03-30T09:31:18.714Z,24.94
2023-03-30T09:32:17.431Z,24.83
2023-03-30T09:33:17.441Z,24.91
2023-03-30T09:34:17.410Z,25.10
2023-03-30T09:35:17.410Z,25.49
2023-03-30T09:36:17.498Z,25.77
2023-03-30T09:37:17.418Z,26.55
2023-03-30T09:38:17.423Z,27.58
2023-03-30T09:39:17.434Z,28.38
2023-03-30T09:40:17.431Z,28.66
2023-03-30T09:41:17.437Z,27.94
2023-03-30T09:42:17.437Z,27.31
2023-03-30T09:43:17.448Z,27.29
2023-03-30T09:44:17.446Z,27.76
2023-03-30T09:45:17.475Z,28.29
2023-03-30T09:46:17.490Z,28.36
2023-03-30T09:47:17.470Z,28.13
2023-03-30T09:48:17.473Z,27.51
2023-03-30T09:49:17.514Z,26.92
2023-03-30T09:50:17.487Z,27.42
2023-03-30T09:51:17.490Z,27.51
2023-03-30T09:52:17.494Z,26.96
2023-03-30T09:53:17.501Z,26.92
2023-03-30T09:54:17.513Z,27.14
2023-03-30T09:55:17.554Z,27.70
2023-03-30T09:56:17.531Z,27.29
2023-03-30T09:57:17.604Z,26.57
2023-03-30T09:58:17.597Z,25.82
2023-03-30T09:59:17.550Z,25.50
2023-03-30T10:00:17.577Z,25.61
2023-03-30T10:01:17.596Z,26.31
2023-03-30T10:02:17.928Z,26.55
2023-03-30T10:03:17.665Z,26.17
2023-03-30T10:04:17.745Z,26.02
2023-03-30T10:05:17.630Z,25.86
2023-03-30T10:06:17.609Z,25.46
2023-03-30T10:07:18.985Z,25.15
2023-03-30T10:08:17.620Z,24.73
2023-03-30T10:09:17.633Z,24.37
2023-03-30T10:10:17.651Z,24.23
2023-03-30T10:11:17.647Z,24.13
2023-03-30T10:12:17.658Z,24.12
2023-03-30T10:13:17.676Z,24.16
2023-03-30T10:14:17.680Z,23.98
2023-03-30T10:15:17.683Z,23.98
2023-03-30T10:16:17.812Z,23.89
2023-03-30T10:17:17.763Z,23.77
2023-03-30T10:18:17.708Z,23.76
2023-03-30T10:19:17.719Z,23.65
2023-03-30T10:20:17.722Z,23.53
2023-03-30T10:21:17.799Z,23.49
2023-03-30T10:22:17.821Z,23.53
2023-03-30T10:23:17.749Z,23.46
2023-03-30T10:24:17.753Z,23.45
2023-03-30T10:25:17.769Z,23.43
2023-03-30T10:26:17.772Z,23.39
2023-03-30T10:27:17.783Z,23.35
2023-03-30T10:28:17.805Z,23.23
2023-03-30T10:29:17.789Z,23.23
2023-03-30T10:30:17.796Z,23.14
2023-03-30T10:31:17.849Z,23.19
2023-03-30T10:32:17.830Z,23.11
2023-03-30T10:33:17.840Z,23.17
2023-03-30T10:34:17.824Z,23.09
2023-03-30T10:35:17.824Z,23.12
2023-03-30T10:36:17.845Z,23.17
2023-03-30T10:37:17.926Z,23.09
2023-03-30T10:38:17.851Z,23.04
2023-03-30T10:39:17.856Z,23.01
2023-03-30T10:40:17.883Z,22.96
2023-03-30T10:41:17.857Z,22.86
2023-03-30T10:42:17.914Z,22.94
2023-03-30T10:43:17.882Z,22.96
2023-03-30T10:44:17.880Z,22.94
2023-03-30T10:45:17.883Z,23.01
2023-03-30T10:46:20.494Z,22.97
2023-03-30T10:47:17.946Z,22.96
2023-03-30T10:48:18.002Z,23.01
2023-03-30T10:49:17.899Z,22.89
2023-03-30T10:50:17.915Z,22.92
2023-03-30T10:51:17.957Z,22.97
2023-03-30T10:52:18.209Z,22.92
2023-03-30T10:53:17.948Z,22.96
2023-03-30T10:54:17.933Z,22.94
2023-03-30T10:55:17.928Z,23.04
2023-03-30T10:56:17.942Z,23.01
2023-03-30T10:57:17.994Z,23.05
2023-03-30T10:58:17.938Z,23.14
2023-03-30T10:59:17.952Z,22.99
2023-03-30T11:00:17.943Z,23.07
2023-03-30T11:01:17.969Z,23.07
2023-03-30T11:02:17.953Z,23.05
2023-03-30T11:03:18.011Z,23.08
2023-03-30T11:04:23.614Z,23.14
2023-03-30T11:05:17.969Z,23.11
2023-03-30T11:06:17.971Z,23.12
2023-03-30T11:07:17.986Z,23.15
2023-03-30T11:08:17.976Z,23.14
2023-03-30T11:09:18.067Z,23.17
2023-03-30T11:10:18.050Z,23.15
2023-03-30T11:11:17.995Z,23.20
2023-03-30T11:12:18.000Z,23.15
2023-03-30T11:13:18.066Z,23.12
2023-03-30T11:14:18.023Z,23.12
2023-03-30T11:15:18.012Z,23.14
2023-03-30T11:16:18.019Z,23.17
2023-03-30T11:17:18.024Z,23.11
2023-03-30T11:18:18.065Z,23.07
2023-03-30T11:19:18.071Z,23.11
2023-03-30T11:20:18.074Z,23.32
2023-03-30T11:21:18.029Z,23.27
2023-03-30T11:22:18.031Z,23.31
2023-03-30T11:23:18.038Z,23.29
2023-03-30T11:24:18.039Z,23.23
2023-03-30T11:25:18.204Z,23.26
2023-03-30T11:26:18.054Z,23.14
2023-03-30T11:27:18.048Z,23.12
2023-03-30T11:28:18.257Z,23.22
2023-03-30T11:29:18.058Z,23.29
2023-03-30T11:30:18.118Z,23.23
2023-03-30T11:31:18.093Z,23.12
2023-03-30T11:32:18.069Z,23.14
2023-03-30T11:33:18.075Z,23.14
2023-03-30T11:34:18.127Z,23.14
2023-03-30T11:35:18.081Z,23.17
2023-03-30T11:36:18.115Z,23.09
2023-03-30T11:37:18.087Z,23.14
2023-03-30T11:38:18.090Z,23.22
2023-03-30T11:39:31.059Z,23.17
2023-03-30T11:40:18.099Z,23.19
2023-03-30T11:41:18.120Z,23.17
2023-03-30T11:42:18.101Z,23.14
2023-03-30T11:43:18.108Z,23.20
2023-03-30T11:44:18.114Z,23.11
2023-03-30T11:45:18.120Z,23.15
2023-03-30T11:46:18.180Z,23.14
2023-03-30T11:47:18.132Z,23.11
2023-03-30T11:48:18.142Z,23.15
2023-03-30T11:49:18.187Z,23.12
2023-03-30T11:50:18.158Z,23.17
2023-03-30T11:51:18.150Z,23.17
2023-03-30T11:52:18.151Z,23.15
2023-03-30T11:53:18.151Z,23.09
2023-03-30T11:54:18.149Z,23.20
2023-03-30T11:55:18.213Z,23.08
2023-03-30T11:56:18.165Z,23.08
2023-03-30T11:57:18.219Z,23.07
2023-03-30T11:58:18.169Z,22.94
2023-03-30T11:59:18.180Z,22.93
2023-03-30T12:00:18.233Z,22.90
2023-03-30T12:01:18.175Z,22.92
2023-03-30T12:02:18.220Z,22.94
2023-03-30T12:03:18.279Z,22.93
2023-03-30T12:04:18.215Z,22.97
2023-03-30T12:05:18.199Z,23.04
2023-03-30T12:06:18.210Z,22.97
2023-03-30T12:07:18.217Z,22.94
2023-03-30T12:08:18.210Z,23.02
2023-03-30T12:09:18.213Z,22.93
2023-03-30T12:10:18.281Z,23.11
2023-03-30T12:11:18.212Z,23.04
2023-03-30T12:12:18.237Z,23.05
2023-03-30T12:13:18.246Z,23.09
2023-03-30T12:14:18.225Z,23.12
2023-03-30T12:15:18.235Z,23.11
2023-03-30T12:16:18.306Z,23.05
2023-03-30T12:17:18.238Z,23.04
2023-03-30T12:18:18.242Z,23.12
2023-03-30T12:19:18.243Z,23.11
2023-03-30T12:20:18.476Z,23.15
2023-03-30T12:21:18.256Z,23.09
2023-03-30T12:22:18.263Z,23.12
2023-03-30T12:23:18.273Z,23.07
2023-03-30T12:24:18.274Z,23.09
2023-03-30T12:25:18.264Z,23.09
2023-03-30T12:26:18.271Z,23.15
2023-03-30T12:27:18.269Z,23.11
2023-03-30T12:28:18.281Z,23.07
2023-03-30T12:29:44.477Z,23.11
2023-03-30T12:30:18.289Z,23.07
2023-03-30T12:31:18.337Z,23.07
2023-03-30T12:32:18.300Z,23.04
2023-03-30T12:33:18.309Z,23.05
2023-03-30T12:34:18.301Z,22.99
2023-03-30T12:35:18.414Z,22.93
2023-03-30T12:36:18.360Z,23.01
2023-03-30T12:37:18.313Z,23.04
2023-03-30T12:38:20.497Z,22.96
2023-03-30T12:39:18.344Z,22.99
2023-03-30T12:40:18.570Z,23.01
2023-03-30T12:41:18.589Z,22.94
2023-03-30T12:42:18.338Z,22.96
2023-03-30T12:43:18.328Z,22.99
2023-03-30T12:44:18.338Z,22.99
2023-03-30T12:45:18.388Z,22.96
2023-03-30T12:46:18.370Z,22.97
2023-03-30T12:47:18.369Z,22.92
2023-03-30T12:48:18.354Z,22.96
2023-03-30T12:49:18.348Z,22.96
2023-03-30T12:50:18.366Z,22.92
2023-03-30T12:51:18.353Z,22.96
2023-03-30T12:52:18.370Z,22.96